createdAt,value
2018-12-10T00:03:42.002Z,65.50
2018-12-10T00:08:16.991Z,67.50
2018-12-10T00:12:51.890Z,66.90
2018-12-10T00:17:26.794Z,68.00
2018-12-10T00:22:01.659Z,65.00
2018-12-10T00:26:36.592Z,66.30
2018-12-10T00:31:11.518Z,65.60
2018-12-10T00:35:46.404Z,65.90
2018-12-10T00:40:21.300Z,62.00
2018-12-10T00:44:56.208Z,60.10
2018-12-10T00:49:31.138Z,59.90
2018-12-10T00:54:06.021Z,58.60
2018-12-10T00:58:40.927Z,57.60
2018-12-10T01:03:15.899Z,56.70
2018-12-10T01:07:50.777Z,55.10
2018-12-10T01:12:25.663Z,55.90
2018-12-10T01:17:00.543Z,55.60
2018-12-10T01:21:35.466Z,56.00
2018-12-10T01:26:10.340Z,54.50
2018-12-10T01:30:45.243Z,54.80
2018-12-10T01:35:20.140Z,54.60
2018-12-10T01:39:55.041Z,53.90
2018-12-10T01:44:29.945Z,54.00
2018-12-10T01:49:04.832Z,53.10
2018-12-10T01:53:39.709Z,54.30
2018-12-10T01:58:14.597Z,56.30
2018-12-10T02:02:49.482Z,60.40
2018-12-10T02:07:24.372Z,61.70
2018-12-10T02:11:59.985Z,62.20
2018-12-10T02:16:34.878Z,57.90
2018-12-10T02:21:09.751Z,62.90
2018-12-10T02:25:45.118Z,64.40
2018-12-10T02:30:20.005Z,70.60
2018-12-10T02:34:54.919Z,71.10
2018-12-10T02:39:29.783Z,71.70
2018-12-10T02:44:04.721Z,73.80
2018-12-10T02:48:39.604Z,72.50
2018-12-10T02:53:14.573Z,72.10
2018-12-10T02:57:50.044Z,73.20
2018-12-10T03:02:24.959Z,74.10
2018-12-10T03:06:59.831Z,73.40
2018-12-10T03:11:34.741Z,75.90
2018-12-10T03:16:09.611Z,74.60
2018-12-10T03:20:44.517Z,74.10
2018-12-10T03:25:19.403Z,76.80
2018-12-10T03:29:55.027Z,77.30
2018-12-10T03:34:29.887Z,77.20
2018-12-10T03:39:06.612Z,76.10
2018-12-10T03:43:42.051Z,78.00
2018-12-10T03:48:17.079Z,74.00
2018-12-10T03:52:51.998Z,68.60
2018-12-10T03:57:27.516Z,71.30
2018-12-10T04:02:02.390Z,72.90
2018-12-10T04:06:37.285Z,74.60
2018-12-10T04:11:12.203Z,74.30
2018-12-10T04:15:47.214Z,76.00
2018-12-10T04:20:22.088Z,76.10
2018-12-10T04:24:56.982Z,74.70
2018-12-10T04:29:31.863Z,74.00
2018-12-10T04:34:06.748Z,73.50
2018-12-10T04:38:41.623Z,66.70
2018-12-10T04:43:17.571Z,66.90
2018-12-10T04:47:52.443Z,58.30
2018-12-10T04:52:27.344Z,56.00
2018-12-10T04:57:02.491Z,57.10
2018-12-10T05:01:37.402Z,55.80
2018-12-10T05:06:12.289Z,55.20
2018-12-10T05:10:47.205Z,54.40
2018-12-10T05:15:22.535Z,53.30
2018-12-10T05:19:57.423Z,53.80
2018-12-10T05:24:32.287Z,54.00
2018-12-10T05:29:07.214Z,55.00
2018-12-10T05:33:42.083Z,56.30
2018-12-10T05:38:16.992Z,56.30
2018-12-10T05:42:51.904Z,55.70
2018-12-10T05:47:26.828Z,57.90
2018-12-10T05:52:01.966Z,58.70
2018-12-10T05:56:37.711Z,59.80
2018-12-10T06:01:12.612Z,60.80
2018-12-10T06:05:47.503Z,61.60
2018-12-10T06:10:22.389Z,60.90
2018-12-10T06:14:57.297Z,59.00
2018-12-10T06:19:32.183Z,58.70
2018-12-10T06:24:07.083Z,58.80
2018-12-10T06:28:43.713Z,59.20
2018-12-10T06:33:19.204Z,59.20
2018-12-10T06:37:54.107Z,60.30
2018-12-10T06:42:29.027Z,61.60
2018-12-10T06:47:03.955Z,61.60
2018-12-10T06:51:38.897Z,61.40
2018-12-10T06:56:13.766Z,60.90
2018-12-10T07:00:48.847Z,63.00
2018-12-10T07:05:23.773Z,63.80
2018-12-10T07:09:59.283Z,62.20
2018-12-10T07:14:34.191Z,61.30
2018-12-10T07:19:09.078Z,59.90
2018-12-10T07:23:43.959Z,61.40
2018-12-10T07:28:18.855Z,59.40
2018-12-10T07:32:53.747Z,65.50
2018-12-10T07:37:28.667Z,66.10
2018-12-10T07:42:03.619Z,67.30
2018-12-10T07:46:38.703Z,70.30
2018-12-10T07:51:13.790Z,68.80
2018-12-10T07:55:50.878Z,66.90
2018-12-10T08:00:26.488Z,68.60
2018-12-10T08:05:01.406Z,69.90
2018-12-10T08:09:36.263Z,73.30
2018-12-10T08:14:11.184Z,72.20
2018-12-10T08:18:46.056Z,71.90
2018-12-10T08:23:20.939Z,70.10
2018-12-10T08:27:55.830Z,68.80
2018-12-10T08:32:30.749Z,72.90
2018-12-10T08:37:05.626Z,74.10
2018-12-10T08:41:40.520Z,75.70
2018-12-10T08:46:16.282Z,75.50
2018-12-10T08:50:51.544Z,76.40
2018-12-10T08:55:27.599Z,76.20
2018-12-10T09:00:03.644Z,75.90
2018-12-10T09:04:38.542Z,78.20
2018-12-10T09:09:13.490Z,78.90
2018-12-10T09:13:48.856Z,80.50
2018-12-10T09:18:23.796Z,77.20
2018-12-10T09:22:58.679Z,78.10
2018-12-10T09:27:33.592Z,76.50
2018-12-10T09:32:08.568Z,62.40
2018-12-10T09:36:43.587Z,61.90
2018-12-10T09:41:18.570Z,63.40
2018-12-10T09:45:53.648Z,60.00
2018-12-10T09:50:28.563Z,59.50
2018-12-10T09:55:03.792Z,58.60
2018-12-10T09:59:38.687Z,60.90
2018-12-10T10:04:13.582Z,59.70
2018-12-10T10:08:49.584Z,57.90
2018-12-10T10:13:25.142Z,59.10
2018-12-10T10:18:00.050Z,59.40
2018-12-10T10:22:34.999Z,59.20
2018-12-10T10:27:10.392Z,57.60
2018-12-10T10:31:45.324Z,56.70
2018-12-10T10:36:20.338Z,57.10
2018-12-10T10:40:55.324Z,58.20
2018-12-10T10:45:34.791Z,57.90
2018-12-10T10:50:07.927Z,56.60
2018-12-10T10:54:42.922Z,55.10
2018-12-10T10:59:17.817Z,54.70
2018-12-10T11:03:53.037Z,54.60
2018-12-10T11:08:28.033Z,53.60
2018-12-10T11:13:02.908Z,53.10
2018-12-10T11:17:37.866Z,53.00
2018-12-10T11:22:12.836Z,53.00
2018-12-10T11:26:48.072Z,52.50
2018-12-10T11:31:23.088Z,53.30
2018-12-10T11:35:58.027Z,54.80
2018-12-10T11:40:33.576Z,54.30
2018-12-10T11:45:08.605Z,55.10
2018-12-10T11:49:43.982Z,52.80
2018-12-10T11:54:18.910Z,53.00
2018-12-10T11:58:53.867Z,53.60
2018-12-10T12:03:28.825Z,52.40
2018-12-10T12:08:03.837Z,52.90
2018-12-10T12:12:38.852Z,52.90
2018-12-10T12:17:13.880Z,52.50
2018-12-10T12:21:48.930Z,53.30
2018-12-10T12:26:24.775Z,53.00
2018-12-10T12:30:59.687Z,52.70
2018-12-10T12:35:34.874Z,54.30
2018-12-10T12:40:09.827Z,52.90
2018-12-10T12:44:44.712Z,53.80
2018-12-10T12:49:19.592Z,53.10
2018-12-10T12:53:54.539Z,54.90
2018-12-10T12:58:30.043Z,56.00
2018-12-10T13:03:04.942Z,55.10
2018-12-10T13:07:39.862Z,54.90
2018-12-10T13:12:14.852Z,55.10
2018-12-10T13:16:49.966Z,54.90
2018-12-10T13:21:25.060Z,53.70
2018-12-10T13:25:59.952Z,54.60
2018-12-10T13:30:34.969Z,54.50
2018-12-10T13:35:10.149Z,52.10
2018-12-10T13:39:45.276Z,51.70
2018-12-10T13:44:20.662Z,52.70
2018-12-10T13:48:55.539Z,52.00
2018-12-10T13:53:30.437Z,51.10
2018-12-10T13:58:05.382Z,52.10
2018-12-10T14:02:40.529Z,53.40
2018-12-10T14:07:15.414Z,52.90
2018-12-10T14:11:50.405Z,54.30
2018-12-10T14:16:28.036Z,56.30
2018-12-10T14:21:04.773Z,57.60
2018-12-10T14:25:39.655Z,58.00
2018-12-10T14:30:14.884Z,59.20
2018-12-10T14:34:50.473Z,58.30
2018-12-10T14:39:25.413Z,57.60
2018-12-10T14:44:00.323Z,55.50
2018-12-10T14:48:35.325Z,55.70
2018-12-10T14:53:10.211Z,56.10
2018-12-10T14:57:45.135Z,63.40
2018-12-10T15:02:20.111Z,62.90
2018-12-10T15:06:55.670Z,60.00
2018-12-10T15:11:30.578Z,53.90
2018-12-10T15:16:05.911Z,52.90
2018-12-10T15:20:41.630Z,52.10
2018-12-10T15:25:16.520Z,60.80
2018-12-10T15:29:51.444Z,66.20
2018-12-10T15:34:26.792Z,69.80
2018-12-10T15:39:01.675Z,71.20
2018-12-10T15:43:36.817Z,67.90
2018-12-10T15:48:11.712Z,63.30
2018-12-10T15:52:46.623Z,63.10
2018-12-10T15:57:21.532Z,61.40
2018-12-10T16:01:56.419Z,62.10
2018-12-10T16:06:32.129Z,66.70
2018-12-10T16:11:07.056Z,70.00
2018-12-10T16:15:41.931Z,66.00
2018-12-10T16:20:16.823Z,64.10
2018-12-10T16:24:51.980Z,69.00
2018-12-10T16:29:26.887Z,68.70
2018-12-10T16:34:03.187Z,68.10
2018-12-10T16:38:38.275Z,62.90
2018-12-10T16:43:14.106Z,59.70
2018-12-10T16:47:49.719Z,59.50
2018-12-10T16:52:24.820Z,60.00
2018-12-10T16:57:00.021Z,60.30
2018-12-10T17:01:34.919Z,62.30
2018-12-10T17:06:09.824Z,63.40
2018-12-10T17:10:44.847Z,63.90
2018-12-10T17:15:19.780Z,66.50
2018-12-10T17:19:55.091Z,68.60
2018-12-10T17:24:29.995Z,70.40
2018-12-10T17:29:05.011Z,71.10
2018-12-10T17:33:40.000Z,69.60
2018-12-10T17:38:14.868Z,71.00
2018-12-10T17:42:51.294Z,74.00
2018-12-10T17:47:26.263Z,74.70
2018-12-10T17:52:01.546Z,74.50
2018-12-10T17:56:36.435Z,74.90
2018-12-10T18:01:11.794Z,74.40
2018-12-10T18:05:46.695Z,72.50
2018-12-10T18:10:21.616Z,71.30
2018-12-10T18:14:56.491Z,71.90
2018-12-10T18:19:32.214Z,66.60
2018-12-10T18:24:07.096Z,66.40
2018-12-10T18:28:42.223Z,72.40
2018-12-10T18:33:17.161Z,73.70
2018-12-10T18:37:54.118Z,72.50
2018-12-10T18:42:29.295Z,72.90
2018-12-10T18:47:04.299Z,68.20
2018-12-10T18:51:39.494Z,66.90
2018-12-10T18:56:14.441Z,62.10
2018-12-10T19:00:49.501Z,59.40
2018-12-10T19:05:28.075Z,60.30
2018-12-10T19:10:03.831Z,58.80
2018-12-10T19:14:39.201Z,57.30
2018-12-10T19:19:14.868Z,57.00
2018-12-10T19:23:49.901Z,58.40
2018-12-10T19:28:24.804Z,58.40
2018-12-10T19:33:00.012Z,58.50
2018-12-10T19:37:34.906Z,57.80
2018-12-10T19:42:09.823Z,58.00
2018-12-10T19:46:44.705Z,57.70
2018-12-10T19:51:19.624Z,56.80
2018-12-10T19:55:54.514Z,57.10
2018-12-10T20:00:29.555Z,57.50
2018-12-10T20:05:05.611Z,56.00
2018-12-10T20:09:40.526Z,56.30
2018-12-10T20:14:15.403Z,56.10
2018-12-10T20:18:50.300Z,54.80
2018-12-10T20:23:25.509Z,56.60
2018-12-10T20:28:00.418Z,54.00
2018-12-10T20:32:35.374Z,55.00
2018-12-10T20:37:10.320Z,53.90
2018-12-10T20:41:45.267Z,55.20
2018-12-10T20:46:20.190Z,53.00
2018-12-10T20:50:55.061Z,53.90
2018-12-10T20:55:29.991Z,55.00
2018-12-10T21:00:06.110Z,53.90
2018-12-10T21:04:41.056Z,56.10
2018-12-10T21:09:15.965Z,55.40
2018-12-10T21:13:50.868Z,57.20
2018-12-10T21:18:25.738Z,54.60
2018-12-10T21:23:01.657Z,54.40
2018-12-10T21:27:36.518Z,54.50
2018-12-10T21:32:11.442Z,56.60
2018-12-10T21:36:46.331Z,57.40
2018-12-10T21:41:21.282Z,58.20
2018-12-10T21:45:56.194Z,57.80
2018-12-10T21:50:31.098Z,57.20
2018-12-10T21:55:07.354Z,53.10
2018-12-10T21:59:42.350Z,55.40
2018-12-10T22:04:17.278Z,54.60
2018-12-10T22:08:52.327Z,54.40
2018-12-10T22:13:27.210Z,54.40
2018-12-10T22:18:02.106Z,54.10
2018-12-10T22:22:36.991Z,53.50
2018-12-10T22:27:11.907Z,54.20
2018-12-10T22:31:46.784Z,54.70
2018-12-10T22:36:21.728Z,55.10
2018-12-10T22:40:56.627Z,54.40
2018-12-10T22:45:32.149Z,54.10
2018-12-10T22:50:07.837Z,53.40
2018-12-10T22:54:42.760Z,53.30
2018-12-10T22:59:17.638Z,53.50
2018-12-10T23:03:52.540Z,57.80
2018-12-10T23:08:27.439Z,53.10
2018-12-10T23:13:02.405Z,53.70
2018-12-10T23:17:37.292Z,52.40
2018-12-10T23:22:12.174Z,52.90
2018-12-10T23:26:47.051Z,52.80
2018-12-10T23:31:21.950Z,53.50
2018-12-10T23:35:56.826Z,52.80
2018-12-10T23:40:31.733Z,52.40
2018-12-10T23:45:06.743Z,52.70
2018-12-10T23:49:41.631Z,51.00
2018-12-10T23:54:16.501Z,50.20
2018-12-10T23:58:51.396Z,51.30
